createdAt,value
2024-05-09T00:01:26.947Z,4.80
2024-05-09T00:04:28.851Z,5.23
2024-05-09T00:07:30.627Z,5.13
2024-05-09T00:10:37.083Z,5.63
2024-05-09T00:13:40.621Z,5.53
2024-05-09T00:16:42.526Z,5.87
2024-05-09T00:19:44.635Z,6.07
2024-05-09T00:22:46.473Z,6.27
2024-05-09T00:25:48.360Z,6.30
2024-05-09T00:28:50.345Z,6.73
2024-05-09T00:31:52.343Z,5.80
2024-05-09T00:34:54.223Z,6.00
2024-05-09T00:37:56.099Z,5.50
2024-05-09T00:40:57.964Z,6.03
2024-05-09T00:44:00.269Z,5.67
2024-05-09T00:47:02.101Z,6.23
2024-05-09T00:50:05.589Z,6.20
2024-05-09T00:53:14.328Z,6.20
2024-05-09T00:56:17.194Z,7.67
2024-05-09T00:59:24.150Z,6.60
2024-05-09T01:02:26.059Z,6.90
2024-05-09T01:05:28.028Z,6.33
2024-05-09T01:08:30.074Z,6.67
2024-05-09T01:11:41.673Z,6.20
2024-05-09T01:14:43.674Z,6.30
2024-05-09T01:17:46.325Z,5.67
2024-05-09T01:20:48.246Z,6.30
2024-05-09T01:23:50.210Z,5.97
2024-05-09T01:26:52.153Z,6.20
2024-05-09T01:29:53.955Z,6.70
2024-05-09T01:32:55.875Z,7.10
2024-05-09T01:35:57.937Z,6.10
2024-05-09T01:38:59.783Z,6.60
2024-05-09T01:42:01.828Z,5.93
2024-05-09T01:45:03.701Z,6.90
2024-05-09T01:48:06.166Z,6.27
2024-05-09T01:51:08.637Z,6.80
2024-05-09T01:54:10.920Z,7.27
2024-05-09T01:57:12.723Z,7.60
2024-05-09T02:00:22.135Z,6.63
2024-05-09T02:03:31.585Z,7.90
2024-05-09T02:06:39.955Z,6.83
2024-05-09T02:09:41.904Z,6.50
2024-05-09T02:12:43.669Z,6.77
2024-05-09T02:15:45.498Z,7.03
2024-05-09T02:18:47.491Z,6.90
2024-05-09T02:21:49.373Z,6.87
2024-05-09T02:24:51.215Z,6.33
2024-05-09T02:27:53.057Z,6.23
2024-05-09T02:30:54.874Z,6.50
2024-05-09T02:33:57.024Z,6.63
2024-05-09T02:36:59.038Z,7.50
2024-05-09T02:40:00.990Z,6.73
2024-05-09T02:43:02.727Z,6.90
2024-05-09T02:46:04.876Z,6.60
2024-05-09T02:49:06.781Z,6.93
2024-05-09T02:52:08.632Z,7.03
2024-05-09T02:55:10.388Z,7.67
2024-05-09T02:58:12.433Z,6.90
2024-05-09T03:01:17.891Z,6.93
2024-05-09T03:04:19.761Z,7.23
2024-05-09T03:07:21.581Z,6.47
2024-05-09T03:10:28.361Z,6.73
2024-05-09T03:13:30.864Z,6.40
2024-05-09T03:16:38.432Z,7.67
2024-05-09T03:19:40.309Z,7.07
2024-05-09T03:22:42.188Z,7.93
2024-05-09T03:25:44.058Z,8.03
2024-05-09T03:28:46.048Z,8.57
2024-05-09T03:31:47.963Z,7.77
2024-05-09T03:34:49.808Z,7.30
2024-05-09T03:37:51.670Z,8.10
2024-05-09T03:40:53.474Z,8.60
2024-05-09T03:43:55.389Z,7.77
2024-05-09T03:46:57.687Z,8.83
2024-05-09T03:49:59.451Z,9.57
2024-05-09T03:53:02.087Z,11.07
2024-05-09T03:56:07.903Z,12.07
2024-05-09T03:59:09.627Z,12.37
2024-05-09T04:02:11.466Z,14.53
2024-05-09T04:05:14.050Z,13.83
2024-05-09T04:08:16.105Z,12.20
2024-05-09T04:11:18.481Z,11.40
2024-05-09T04:14:20.566Z,12.60
2024-05-09T04:17:22.585Z,12.20
2024-05-09T04:20:33.792Z,15.07
2024-05-09T04:23:40.675Z,10.00
2024-05-09T04:26:42.710Z,12.83
2024-05-09T04:29:44.589Z,9.80
2024-05-09T04:32:46.625Z,9.47
2024-05-09T04:35:49.653Z,9.70
2024-05-09T04:38:51.541Z,8.70
2024-05-09T04:41:53.538Z,10.50
2024-05-09T04:44:58.675Z,9.83
2024-05-09T04:48:01.287Z,9.30
2024-05-09T04:51:04.243Z,9.13
2024-05-09T04:54:08.458Z,7.90
2024-05-09T04:57:12.505Z,10.37
2024-05-09T05:00:18.082Z,8.80
2024-05-09T05:03:27.730Z,8.23
2024-05-09T05:06:30.707Z,8.67
2024-05-09T05:09:32.500Z,8.03
2024-05-09T05:12:52.605Z,8.83
2024-05-09T05:15:58.607Z,8.13
2024-05-09T05:19:00.719Z,9.60
2024-05-09T05:22:02.664Z,8.63
2024-05-09T05:25:04.725Z,7.97
2024-05-09T05:28:06.818Z,8.10
2024-05-09T05:31:08.683Z,8.60
2024-05-09T05:34:10.549Z,8.53
2024-05-09T05:37:12.318Z,9.97
2024-05-09T05:40:24.657Z,9.53
2024-05-09T05:43:30.149Z,9.57
2024-05-09T05:46:31.903Z,10.00
2024-05-09T05:49:34.654Z,9.47
2024-05-09T05:52:36.440Z,10.00
2024-05-09T05:55:40.078Z,9.47
2024-05-09T05:58:43.299Z,9.67
2024-05-09T06:01:45.229Z,9.27
2024-05-09T06:04:47.271Z,8.80
2024-05-09T06:07:49.212Z,7.40
2024-05-09T06:10:51.194Z,7.60
2024-05-09T06:13:53.139Z,9.43
2024-05-09T06:16:57.644Z,9.20
2024-05-09T06:20:00.143Z,8.13
2024-05-09T06:23:03.367Z,8.03
2024-05-09T06:26:05.419Z,7.40
2024-05-09T06:29:07.476Z,7.67
2024-05-09T06:32:09.373Z,7.00
2024-05-09T06:35:11.237Z,8.00
2024-05-09T06:38:13.191Z,7.73
2024-05-09T06:41:15.361Z,8.10
2024-05-09T06:44:17.187Z,7.47
2024-05-09T06:47:19.108Z,6.93
2024-05-09T06:50:24.224Z,7.23
2024-05-09T06:53:29.750Z,7.00
2024-05-09T06:56:31.839Z,7.27
2024-05-09T06:59:33.699Z,7.50
2024-05-09T07:02:35.901Z,7.10
2024-05-09T07:05:38.023Z,7.33
2024-05-09T07:08:41.340Z,7.73
2024-05-09T07:11:43.327Z,7.37
2024-05-09T07:14:45.261Z,6.93
2024-05-09T07:17:47.284Z,7.00
2024-05-09T07:20:50.250Z,6.60
2024-05-09T07:23:52.561Z,6.30
2024-05-09T07:26:54.373Z,5.20
2024-05-09T07:29:56.595Z,5.10
2024-05-09T07:32:58.857Z,5.60
2024-05-09T07:36:00.831Z,4.60
2024-05-09T07:39:02.709Z,4.50
2024-05-09T07:42:04.990Z,4.97
2024-05-09T07:45:29.546Z,4.40
2024-05-09T07:50:01.360Z,3.57
2024-05-09T07:53:20.939Z,3.97
2024-05-09T07:55:13.845Z,4.50
2024-05-09T07:58:15.770Z,4.13
2024-05-09T08:01:17.829Z,3.73
2024-05-09T08:04:20.861Z,5.17
2024-05-09T08:07:23.197Z,3.87
2024-05-09T08:10:28.835Z,3.33
2024-05-09T08:13:31.201Z,3.10
2024-05-09T08:16:33.120Z,3.03
2024-05-09T08:19:37.802Z,3.40
2024-05-09T08:22:39.665Z,4.13
2024-05-09T08:25:41.448Z,2.60
2024-05-09T08:28:43.306Z,3.47
2024-05-09T08:31:45.159Z,4.23
2024-05-09T08:34:47.228Z,3.13
2024-05-09T08:37:50.115Z,2.57
2024-05-09T08:40:52.313Z,2.80
2024-05-09T08:43:54.550Z,3.10
2024-05-09T08:46:56.924Z,3.83
2024-05-09T08:50:01.205Z,3.03
2024-05-09T08:53:03.161Z,3.30
2024-05-09T08:56:09.689Z,2.40
2024-05-09T08:59:18.176Z,2.00
2024-05-09T09:02:22.364Z,2.43
2024-05-09T09:05:29.798Z,2.53
2024-05-09T09:08:31.996Z,3.07
2024-05-09T09:11:33.887Z,2.70
2024-05-09T09:14:35.685Z,2.63
2024-05-09T09:17:38.411Z,1.90
2024-05-09T09:20:40.298Z,1.63
2024-05-09T09:23:42.112Z,2.83
2024-05-09T09:26:45.550Z,3.30
2024-05-09T09:29:47.344Z,2.20
2024-05-09T09:32:50.244Z,2.93
2024-05-09T09:35:52.261Z,2.20
2024-05-09T09:38:55.389Z,2.23
2024-05-09T09:41:59.647Z,2.40
2024-05-09T09:45:05.551Z,1.70
2024-05-09T09:48:09.010Z,2.40
2024-05-09T09:51:11.673Z,2.30
2024-05-09T09:54:14.100Z,1.60
2024-05-09T09:57:19.559Z,1.77
2024-05-09T10:00:27.461Z,1.80
2024-05-09T10:03:34.852Z,1.53
2024-05-09T10:06:42.450Z,1.87
2024-05-09T10:09:44.292Z,1.60
2024-05-09T10:13:08.598Z,1.97
2024-05-09T10:16:11.276Z,1.93
2024-05-09T10:19:26.562Z,1.40
2024-05-09T10:22:28.904Z,2.40
2024-05-09T10:25:30.768Z,1.87
2024-05-09T10:28:35.333Z,1.93
2024-05-09T10:31:39.516Z,1.60
2024-05-09T10:34:41.464Z,1.37
2024-05-09T10:37:43.878Z,1.37
2024-05-09T10:40:46.572Z,1.30
2024-05-09T10:43:49.394Z,1.10
2024-05-09T10:46:53.877Z,2.10
2024-05-09T10:49:56.154Z,1.53
2024-05-09T10:52:57.919Z,1.77
2024-05-09T10:56:01.113Z,1.17
2024-05-09T10:59:05.977Z,1.30
2024-05-09T11:02:08.199Z,1.73
2024-05-09T11:05:10.453Z,1.67
2024-05-09T11:08:12.601Z,1.50
2024-05-09T11:11:15.179Z,1.10
2024-05-09T11:14:17.628Z,1.50
2024-05-09T11:17:19.468Z,1.67
2024-05-09T11:20:29.077Z,1.93
2024-05-09T11:23:31.823Z,1.10
2024-05-09T11:26:33.750Z,2.20
2024-05-09T11:29:39.912Z,1.47
2024-05-09T11:32:43.008Z,3.60
2024-05-09T11:35:46.937Z,1.40
2024-05-09T11:38:48.820Z,1.83
2024-05-09T11:41:50.710Z,1.70
2024-05-09T11:44:52.458Z,2.33
2024-05-09T11:47:54.693Z,2.33
2024-05-09T11:50:56.738Z,1.60
2024-05-09T11:53:58.599Z,1.20
2024-05-09T11:57:00.446Z,2.37
2024-05-09T12:00:03.076Z,2.40
2024-05-09T12:03:05.995Z,1.37
2024-05-09T12:06:08.240Z,1.70
2024-05-09T12:09:10.091Z,1.23
2024-05-09T12:12:12.478Z,1.30
2024-05-09T12:15:14.374Z,1.80
2024-05-09T12:18:16.273Z,1.60
2024-05-09T12:21:18.260Z,1.30
2024-05-09T12:24:20.004Z,1.10
2024-05-09T12:27:22.356Z,1.33
2024-05-09T12:30:33.112Z,2.53
2024-05-09T12:33:39.638Z,1.50
2024-05-09T12:36:42.189Z,1.30
2024-05-09T12:39:44.057Z,2.27
2024-05-09T12:42:45.899Z,1.23
2024-05-09T12:45:47.856Z,1.27
2024-05-09T12:48:50.015Z,2.43
2024-05-09T12:51:51.978Z,1.43
2024-05-09T12:54:53.896Z,1.37
2024-05-09T12:57:56.218Z,1.70
2024-05-09T13:00:58.364Z,1.43
2024-05-09T13:04:00.321Z,1.57
2024-05-09T13:07:04.309Z,1.70
2024-05-09T13:10:13.815Z,1.17
2024-05-09T13:13:18.230Z,1.73
2024-05-09T13:16:20.274Z,1.07
2024-05-09T13:19:22.240Z,2.37
2024-05-09T13:22:24.146Z,1.57
2024-05-09T13:25:25.985Z,1.27
2024-05-09T13:28:27.955Z,1.13
2024-05-09T13:31:29.983Z,1.20
2024-05-09T13:34:31.951Z,1.20
2024-05-09T13:37:33.830Z,1.20
2024-05-09T13:40:36.632Z,1.10
2024-05-09T13:43:39.036Z,1.40
2024-05-09T13:46:40.967Z,2.83
2024-05-09T13:49:43.063Z,4.63
2024-05-09T13:52:44.904Z,1.10
2024-05-09T13:55:46.945Z,1.20
2024-05-09T13:58:50.618Z,1.60
2024-05-09T14:01:52.585Z,1.27
2024-05-09T14:04:54.690Z,1.10
2024-05-09T14:07:56.706Z,1.10
2024-05-09T14:10:58.674Z,1.37
2024-05-09T14:14:00.618Z,1.60
2024-05-09T14:17:02.526Z,1.00
2024-05-09T14:20:06.106Z,1.50
2024-05-09T14:23:08.112Z,1.50
2024-05-09T14:26:10.019Z,1.97
2024-05-09T14:29:11.789Z,1.30
2024-05-09T14:32:13.639Z,1.00
2024-05-09T14:35:15.421Z,1.50
2024-05-09T14:38:17.216Z,1.10
2024-05-09T14:41:19.064Z,1.20
2024-05-09T14:44:20.843Z,1.00
2024-05-09T14:47:22.881Z,1.03
2024-05-09T14:50:34.462Z,0.97
2024-05-09T14:53:39.522Z,1.40
2024-05-09T14:56:41.858Z,1.10
2024-05-09T14:59:43.649Z,1.00
2024-05-09T15:02:46.558Z,1.00
2024-05-09T15:05:50.768Z,2.27
2024-05-09T15:08:57.819Z,4.30
2024-05-09T15:11:59.672Z,5.50
2024-05-09T15:15:01.471Z,1.50
2024-05-09T15:18:07.142Z,2.70
2024-05-09T15:21:09.225Z,2.53
2024-05-09T15:24:11.150Z,2.40
2024-05-09T15:27:12.979Z,2.00
2024-05-09T15:30:18.130Z,6.10
2024-05-09T15:33:22.647Z,2.47
2024-05-09T15:36:24.631Z,3.73
2024-05-09T15:39:28.448Z,2.20
2024-05-09T15:42:30.403Z,2.10
2024-05-09T15:45:32.328Z,3.00
2024-05-09T15:48:34.657Z,3.50
2024-05-09T15:51:36.733Z,1.70
2024-05-09T15:54:38.823Z,7.33
2024-05-09T15:57:41.086Z,4.77
2024-05-09T16:00:44.978Z,2.13
2024-05-09T16:03:48.363Z,3.00
2024-05-09T16:06:50.498Z,2.10
2024-05-09T16:09:52.281Z,1.70
2024-05-09T16:12:54.109Z,3.93
2024-05-09T16:15:56.143Z,1.70
2024-05-09T16:18:58.060Z,2.33
2024-05-09T16:22:00.557Z,2.40
2024-05-09T16:25:02.504Z,2.37
2024-05-09T16:28:08.548Z,2.07
2024-05-09T16:31:12.380Z,1.60
2024-05-09T16:34:14.298Z,1.60
2024-05-09T16:37:16.283Z,1.80
2024-05-09T16:40:25.549Z,2.00
2024-05-09T16:43:36.057Z,1.83
2024-05-09T16:46:37.946Z,8.30
2024-05-09T16:49:39.691Z,5.30
2024-05-09T16:52:41.619Z,2.47
2024-05-09T16:55:43.534Z,3.60
2024-05-09T16:58:45.613Z,3.73
2024-05-09T17:01:47.517Z,1.90
2024-05-09T17:04:49.472Z,2.03
2024-05-09T17:07:51.828Z,2.03
2024-05-09T17:10:53.825Z,4.93
2024-05-09T17:13:55.914Z,3.40
2024-05-09T17:16:57.862Z,3.40
2024-05-09T17:19:59.783Z,4.70
2024-05-09T17:23:02.761Z,3.00
2024-05-09T17:26:04.876Z,2.37
2024-05-09T17:29:09.262Z,6.33
2024-05-09T17:32:13.564Z,5.70
2024-05-09T17:35:15.482Z,9.37
2024-05-09T17:38:17.597Z,8.00
2024-05-09T17:41:19.440Z,10.60
2024-05-09T17:44:21.270Z,14.43
2024-05-09T17:47:23.412Z,13.57
2024-05-09T17:50:31.595Z,14.07
2024-05-09T17:53:37.389Z,12.57
2024-05-09T17:56:39.227Z,12.30
2024-05-09T17:59:41.008Z,11.13
2024-05-09T18:02:43.022Z,13.80
2024-05-09T18:05:45.448Z,9.00
2024-05-09T18:08:47.589Z,9.60
2024-05-09T18:11:49.472Z,10.67
2024-05-09T18:14:51.288Z,8.37
2024-05-09T18:17:53.208Z,9.73
2024-05-09T18:20:55.088Z,8.63
2024-05-09T18:23:59.673Z,8.13
2024-05-09T18:27:02.223Z,8.77
2024-05-09T18:30:07.206Z,6.80
2024-05-09T18:33:11.237Z,9.03
2024-05-09T18:36:13.643Z,6.60
2024-05-09T18:39:17.161Z,8.30
2024-05-09T18:42:18.974Z,7.27
2024-05-09T18:45:20.798Z,8.20
2024-05-09T18:48:22.731Z,6.70
2024-05-09T18:51:24.527Z,6.43
2024-05-09T18:54:26.339Z,8.30
2024-05-09T18:57:29.033Z,6.67
2024-05-09T19:00:35.655Z,7.63
2024-05-09T19:03:40.830Z,7.80
2024-05-09T19:06:42.903Z,8.43
2024-05-09T19:09:44.917Z,8.33
2024-05-09T19:12:46.791Z,7.10
2024-05-09T19:15:48.752Z,8.20
2024-05-09T19:18:51.705Z,8.83
2024-05-09T19:21:54.056Z,8.50
2024-05-09T19:24:55.867Z,12.27
2024-05-09T19:27:57.877Z,7.93
2024-05-09T19:30:59.842Z,8.27
2024-05-09T19:34:01.776Z,7.87
2024-05-09T19:37:04.121Z,6.93
2024-05-09T19:40:08.546Z,6.87
2024-05-09T19:43:14.355Z,12.73
2024-05-09T19:46:17.350Z,7.70
2024-05-09T19:49:20.025Z,6.90
2024-05-09T19:52:22.166Z,5.80
2024-05-09T19:55:24.042Z,9.87
2024-05-09T19:58:26.107Z,7.10
2024-05-09T20:01:28.063Z,8.93
2024-05-09T20:04:30.145Z,7.43
2024-05-09T20:07:33.191Z,6.80
2024-05-09T20:10:36.990Z,6.90
2024-05-09T20:13:39.179Z,7.60
2024-05-09T20:16:41.288Z,8.80
2024-05-09T20:19:44.186Z,9.10
2024-05-09T20:22:46.107Z,9.93
2024-05-09T20:25:47.944Z,6.50
2024-05-09T20:28:49.719Z,5.20
2024-05-09T20:31:51.594Z,6.13
2024-05-09T20:34:53.377Z,5.57
2024-05-09T20:37:55.183Z,5.03
2024-05-09T20:40:57.134Z,6.20
2024-05-09T20:44:01.752Z,5.00
2024-05-09T20:47:03.702Z,4.50
2024-05-09T20:50:11.385Z,5.23
2024-05-09T20:53:18.325Z,6.03
2024-05-09T20:56:23.376Z,5.60
2024-05-09T20:59:25.234Z,5.60
2024-05-09T21:02:27.263Z,7.03
2024-05-09T21:05:29.339Z,5.50
2024-05-09T21:08:31.289Z,3.80
2024-05-09T21:11:33.193Z,3.83
2024-05-09T21:14:35.032Z,4.00
2024-05-09T21:17:36.907Z,5.10
2024-05-09T21:20:38.830Z,5.83
2024-05-09T21:23:40.770Z,3.80
2024-05-09T21:26:42.577Z,3.07
2024-05-09T21:29:44.484Z,4.23
2024-05-09T21:32:46.465Z,4.20
2024-05-09T21:35:48.344Z,4.20
2024-05-09T21:38:50.191Z,4.40
2024-05-09T21:41:51.977Z,3.70
2024-05-09T21:44:56.658Z,4.30
2024-05-09T21:47:58.977Z,3.73
2024-05-09T21:51:01.106Z,2.83
2024-05-09T21:54:02.956Z,3.30
2024-05-09T21:57:06.720Z,3.80
2024-05-09T22:00:27.947Z,3.00
2024-05-09T22:03:36.602Z,3.37
2024-05-09T22:06:38.530Z,3.13
2024-05-09T22:09:45.490Z,5.10
2024-05-09T22:12:47.438Z,3.37
2024-05-09T22:15:49.327Z,3.63
2024-05-09T22:18:51.325Z,2.83
2024-05-09T22:21:54.046Z,2.90
2024-05-09T22:24:55.913Z,3.30
2024-05-09T22:27:57.758Z,2.80
2024-05-09T22:30:59.616Z,3.10
2024-05-09T22:34:01.494Z,2.53
2024-05-09T22:37:03.624Z,3.53
2024-05-09T22:40:06.891Z,2.67
2024-05-09T22:43:08.968Z,2.80
2024-05-09T22:46:11.209Z,2.40
2024-05-09T22:49:13.111Z,3.20
2024-05-09T22:52:15.212Z,2.67
2024-05-09T22:55:17.064Z,2.23
2024-05-09T22:58:19.232Z,2.63
2024-05-09T23:01:22.916Z,2.63
2024-05-09T23:04:26.273Z,3.47
2024-05-09T23:07:28.043Z,2.83
2024-05-09T23:10:35.802Z,2.07
2024-05-09T23:13:39.646Z,2.40
2024-05-09T23:16:42.556Z,2.30
2024-05-09T23:19:44.593Z,2.40
2024-05-09T23:22:46.449Z,2.27
2024-05-09T23:25:49.633Z,2.97
2024-05-09T23:28:51.496Z,2.20
2024-05-09T23:31:53.488Z,3.13
2024-05-09T23:34:55.473Z,2.17
2024-05-09T23:37:57.345Z,2.77
2024-05-09T23:40:59.196Z,2.03
2024-05-09T23:44:01.112Z,2.80
2024-05-09T23:47:02.968Z,2.00
2024-05-09T23:50:11.176Z,2.80
2024-05-09T23:53:18.061Z,2.80
2024-05-09T23:56:21.694Z,3.30
2024-05-09T23:59:23.488Z,1.90
